createdAt,value
2022-09-30T00:01:50.881Z,9.10
2022-09-30T00:04:20.828Z,9.00
2022-09-30T00:06:48.196Z,9.00
2022-09-30T00:09:15.775Z,9.00
2022-09-30T00:11:43.141Z,9.00
2022-09-30T00:14:18.763Z,9.00
2022-09-30T00:16:46.016Z,9.00
2022-09-30T00:19:13.045Z,9.10
2022-09-30T00:21:40.132Z,9.10
2022-09-30T00:24:07.625Z,9.10
2022-09-30T00:26:35.437Z,9.10
2022-09-30T00:29:02.739Z,9.10
2022-09-30T00:31:32.517Z,9.00
2022-09-30T00:33:59.569Z,9.10
2022-09-30T00:36:26.170Z,9.00
2022-09-30T00:38:52.759Z,9.00
2022-09-30T00:41:19.336Z,9.00
2022-09-30T00:43:48.017Z,9.00
2022-09-30T00:46:43.639Z,9.00
2022-09-30T00:49:24.997Z,9.00
2022-09-30T00:51:57.644Z,8.90
2022-09-30T00:54:29.616Z,8.90
2022-09-30T00:57:04.375Z,8.80
2022-09-30T00:59:34.730Z,8.80
2022-09-30T01:02:02.076Z,8.80
2022-09-30T01:04:32.166Z,8.80
2022-09-30T01:07:07.632Z,8.80
2022-09-30T01:09:37.112Z,8.80
2022-09-30T01:12:12.030Z,8.70
2022-09-30T01:14:40.268Z,8.70
2022-09-30T01:17:21.848Z,8.70
2022-09-30T01:19:54.000Z,8.70
2022-09-30T01:22:45.179Z,8.70
2022-09-30T01:25:36.467Z,8.60
2022-09-30T01:28:30.818Z,8.70
2022-09-30T01:31:21.758Z,8.70
2022-09-30T01:34:16.969Z,8.60
2022-09-30T01:37:25.570Z,8.60
2022-09-30T01:40:05.548Z,8.60
2022-09-30T01:42:45.015Z,8.50
2022-09-30T01:45:35.053Z,8.60
2022-09-30T01:48:26.572Z,8.60
2022-09-30T01:50:56.282Z,8.50
2022-09-30T01:53:41.710Z,8.50
2022-09-30T01:56:16.010Z,8.50
2022-09-30T01:58:56.595Z,8.60
2022-09-30T02:01:30.529Z,8.50
2022-09-30T02:04:05.515Z,8.50
2022-09-30T02:06:39.191Z,8.50
2022-09-30T02:09:28.790Z,8.50
2022-09-30T02:11:59.412Z,8.40
2022-09-30T02:14:28.789Z,8.30
2022-09-30T02:17:03.241Z,8.30
2022-09-30T02:19:43.537Z,8.30
2022-09-30T02:22:24.375Z,8.20
2022-09-30T02:24:57.377Z,8.20
2022-09-30T02:27:40.770Z,8.20
2022-09-30T02:30:09.018Z,8.20
2022-09-30T02:32:40.796Z,8.20
2022-09-30T02:35:34.142Z,8.20
2022-09-30T02:38:06.331Z,8.30
2022-09-30T02:40:44.287Z,8.20
2022-09-30T02:43:11.146Z,8.20
2022-09-30T02:46:01.187Z,8.10
2022-09-30T02:48:45.496Z,8.10
2022-09-30T02:51:38.159Z,8.00
2022-09-30T02:54:28.904Z,8.00
2022-09-30T02:57:15.444Z,8.00
2022-09-30T02:59:42.084Z,8.00
2022-09-30T03:02:08.800Z,8.00
2022-09-30T03:04:38.141Z,8.00
2022-09-30T03:07:04.760Z,7.90
2022-09-30T03:09:31.462Z,7.90
2022-09-30T03:12:25.002Z,7.90
2022-09-30T03:15:12.204Z,7.90
2022-09-30T03:17:55.076Z,8.00
2022-09-30T03:20:29.620Z,8.00
2022-09-30T03:22:56.120Z,8.00
2022-09-30T03:25:22.665Z,8.10
2022-09-30T03:28:26.896Z,8.10
2022-09-30T03:31:18.630Z,8.10
2022-09-30T03:34:11.909Z,8.10
2022-09-30T03:36:57.124Z,8.10
2022-09-30T03:39:39.500Z,8.20
2022-09-30T03:42:20.667Z,8.10
2022-09-30T03:44:59.168Z,8.10
2022-09-30T03:47:27.883Z,8.10
2022-09-30T03:49:58.980Z,8.20
2022-09-30T03:52:27.049Z,8.10
2022-09-30T03:54:57.289Z,8.20
2022-09-30T03:57:25.516Z,8.10
2022-09-30T03:59:52.091Z,8.10
2022-09-30T04:02:18.712Z,8.00
2022-09-30T04:04:45.349Z,8.00
2022-09-30T04:07:12.587Z,8.10
2022-09-30T04:09:39.545Z,8.10
2022-09-30T04:12:07.376Z,8.10
2022-09-30T04:14:34.579Z,8.10
2022-09-30T04:17:01.699Z,8.00
2022-09-30T04:19:28.296Z,7.90
2022-09-30T04:21:55.281Z,8.00
2022-09-30T04:24:23.336Z,8.00
2022-09-30T04:26:50.450Z,8.00
2022-09-30T04:29:17.388Z,8.00
2022-09-30T04:31:44.036Z,8.00
2022-09-30T04:34:10.677Z,8.00
2022-09-30T04:36:38.020Z,8.00
2022-09-30T04:39:05.182Z,8.00
2022-09-30T04:41:32.041Z,8.00
2022-09-30T04:43:58.643Z,8.00
2022-09-30T04:46:25.296Z,8.00
2022-09-30T04:48:52.203Z,8.00
2022-09-30T04:51:21.069Z,8.00
2022-09-30T04:53:48.669Z,8.00
2022-09-30T04:56:15.677Z,8.00
2022-09-30T04:58:42.799Z,8.10
2022-09-30T05:01:15.288Z,8.00
2022-09-30T05:03:41.969Z,7.90
2022-09-30T05:06:09.393Z,7.90
2022-09-30T05:08:36.514Z,7.90
2022-09-30T05:11:07.322Z,7.90
2022-09-30T05:13:37.316Z,7.90
2022-09-30T05:16:04.961Z,7.90
2022-09-30T05:18:32.338Z,7.90
2022-09-30T05:20:58.918Z,7.90
2022-09-30T05:23:27.421Z,7.90
2022-09-30T05:25:54.326Z,7.80
2022-09-30T05:28:20.951Z,7.70
2022-09-30T05:30:48.195Z,7.70
2022-09-30T05:33:14.946Z,7.60
2022-09-30T05:35:42.538Z,7.60
2022-09-30T05:38:10.117Z,7.60
2022-09-30T05:40:40.530Z,7.60
2022-09-30T05:43:07.820Z,7.70
2022-09-30T05:45:34.769Z,7.70
2022-09-30T05:48:02.167Z,7.70
2022-09-30T05:50:29.049Z,7.70
2022-09-30T05:52:55.635Z,7.70
2022-09-30T05:55:22.243Z,7.70
2022-09-30T05:57:50.275Z,7.80
2022-09-30T06:00:17.944Z,7.70
2022-09-30T06:02:44.841Z,7.60
2022-09-30T06:05:12.414Z,7.60
2022-09-30T06:07:39.458Z,7.60
2022-09-30T06:10:08.464Z,7.60
2022-09-30T06:12:35.300Z,7.60
2022-09-30T06:15:01.918Z,7.50
2022-09-30T06:17:28.549Z,7.60
2022-09-30T06:19:55.188Z,7.40
2022-09-30T06:22:21.806Z,7.50
2022-09-30T06:24:51.538Z,7.60
2022-09-30T06:27:21.520Z,7.40
2022-09-30T06:29:48.098Z,7.40
2022-09-30T06:32:14.678Z,7.40
2022-09-30T06:34:41.262Z,7.40
2022-09-30T06:37:07.846Z,7.50
2022-09-30T06:39:34.449Z,7.50
2022-09-30T06:42:01.120Z,7.60
2022-09-30T06:44:27.730Z,7.70
2022-09-30T06:46:54.494Z,7.70
2022-09-30T06:49:21.412Z,7.80
2022-09-30T06:51:48.008Z,7.80
2022-09-30T06:54:14.672Z,7.80
2022-09-30T06:56:41.271Z,7.60
2022-09-30T06:59:07.903Z,7.70
2022-09-30T07:01:34.659Z,7.70
2022-09-30T07:04:01.572Z,7.70
2022-09-30T07:06:28.150Z,7.80
2022-09-30T07:08:54.778Z,7.80
2022-09-30T07:11:21.463Z,7.90
2022-09-30T07:13:48.675Z,7.90
2022-09-30T07:16:17.543Z,7.90
2022-09-30T07:18:45.094Z,7.90
2022-09-30T07:21:15.656Z,8.00
2022-09-30T07:23:46.120Z,8.00
2022-09-30T07:26:13.513Z,8.00
2022-09-30T07:28:40.124Z,8.10
2022-09-30T07:31:31.195Z,8.10
2022-09-30T07:33:56.036Z,8.10
2022-09-30T07:36:29.764Z,8.10
2022-09-30T07:38:58.912Z,8.20
2022-09-30T07:41:27.585Z,8.20
2022-09-30T07:43:56.181Z,8.20
2022-09-30T07:46:31.304Z,8.20
2022-09-30T07:49:00.171Z,8.30
2022-09-30T07:51:39.246Z,8.30
2022-09-30T07:54:13.777Z,8.20
2022-09-30T07:57:08.153Z,8.20
2022-09-30T07:59:28.458Z,8.20
2022-09-30T08:01:55.211Z,8.30
2022-09-30T08:04:23.699Z,8.30
2022-09-30T08:06:52.951Z,8.40
2022-09-30T08:09:21.466Z,8.40
2022-09-30T08:11:48.961Z,8.50
2022-09-30T08:14:18.740Z,8.50
2022-09-30T08:16:45.444Z,8.60
2022-09-30T08:19:20.763Z,8.70
2022-09-30T08:21:47.814Z,8.80
2022-09-30T08:24:14.656Z,8.90
2022-09-30T08:26:42.594Z,8.90
2022-09-30T08:29:09.760Z,8.90
2022-09-30T08:31:36.450Z,8.90
2022-09-30T08:34:03.126Z,8.90
2022-09-30T08:36:30.038Z,8.90
2022-09-30T08:38:57.327Z,9.00
2022-09-30T08:41:32.947Z,9.10
2022-09-30T08:44:16.692Z,9.10
2022-09-30T08:47:28.447Z,9.10
2022-09-30T08:50:35.438Z,9.20
2022-09-30T08:53:09.659Z,9.20
2022-09-30T08:55:41.535Z,9.20
2022-09-30T08:58:25.348Z,9.30
2022-09-30T09:00:55.399Z,9.30
2022-09-30T09:03:26.153Z,9.30
2022-09-30T09:06:03.103Z,9.40
2022-09-30T09:09:08.817Z,9.40
2022-09-30T09:11:43.377Z,9.30
2022-09-30T09:14:22.264Z,9.40
2022-09-30T09:17:19.568Z,9.50
2022-09-30T09:20:16.171Z,9.60
2022-09-30T09:22:45.552Z,9.70
2022-09-30T09:25:21.803Z,9.80
2022-09-30T09:27:54.688Z,9.90
2022-09-30T09:30:26.242Z,10.10
2022-09-30T09:32:58.360Z,10.20
2022-09-30T09:35:58.278Z,10.30
2022-09-30T09:38:48.529Z,10.20
2022-09-30T09:41:23.162Z,10.20
2022-09-30T09:43:57.796Z,10.20
2022-09-30T09:46:54.004Z,10.20
2022-09-30T09:49:20.944Z,10.30
2022-09-30T09:51:48.896Z,10.40
2022-09-30T09:54:18.637Z,10.40
2022-09-30T09:56:45.253Z,10.40
2022-09-30T09:59:19.726Z,10.40
2022-09-30T10:02:27.873Z,10.40
2022-09-30T10:04:54.746Z,10.50
2022-09-30T10:07:21.316Z,10.50
2022-09-30T10:09:47.912Z,10.60
2022-09-30T10:12:14.488Z,10.70
2022-09-30T10:15:20.752Z,10.70
2022-09-30T10:18:05.270Z,10.90
2022-09-30T10:20:36.947Z,11.00
2022-09-30T10:23:22.297Z,11.00
2022-09-30T10:26:14.906Z,11.20
2022-09-30T10:28:55.989Z,11.10
2022-09-30T10:31:29.934Z,11.10
2022-09-30T10:34:10.970Z,11.30
2022-09-30T10:36:41.307Z,11.20
2022-09-30T10:39:21.031Z,11.20
2022-09-30T10:41:47.775Z,11.30
2022-09-30T10:44:18.128Z,11.20
2022-09-30T10:46:48.525Z,11.30
2022-09-30T10:49:31.583Z,11.40
2022-09-30T10:52:00.141Z,11.40
2022-09-30T10:54:43.087Z,11.50
2022-09-30T10:57:34.455Z,11.60
2022-09-30T11:00:07.441Z,11.60
2022-09-30T11:02:53.301Z,11.50
2022-09-30T11:05:28.180Z,11.50
2022-09-30T11:08:06.505Z,11.60
2022-09-30T11:11:11.646Z,11.80
2022-09-30T11:13:55.228Z,12.00
2022-09-30T11:16:47.924Z,12.00
2022-09-30T11:19:28.567Z,12.20
2022-09-30T11:22:09.208Z,12.20
2022-09-30T11:24:41.396Z,12.20
2022-09-30T11:27:43.790Z,12.30
2022-09-30T11:30:38.014Z,12.40
2022-09-30T11:33:41.770Z,12.70
2022-09-30T11:36:30.298Z,12.80
2022-09-30T11:39:34.324Z,13.10
2022-09-30T11:42:10.648Z,13.10
2022-09-30T11:44:41.037Z,13.00
2022-09-30T11:47:41.298Z,13.00
2022-09-30T11:50:32.402Z,12.70
2022-09-30T11:53:50.158Z,12.80
2022-09-30T11:56:23.750Z,12.80
2022-09-30T11:58:53.890Z,12.70
2022-09-30T12:01:42.451Z,12.60
2022-09-30T12:04:30.590Z,12.80
2022-09-30T12:07:09.363Z,12.80
2022-09-30T12:09:47.914Z,12.90
2022-09-30T12:12:17.524Z,12.90
2022-09-30T12:14:54.703Z,13.00
2022-09-30T12:17:29.784Z,13.00
2022-09-30T12:19:59.672Z,13.10
2022-09-30T12:22:28.223Z,13.20
2022-09-30T12:24:54.831Z,13.10
2022-09-30T12:27:40.869Z,13.10
2022-09-30T12:30:20.466Z,13.10
2022-09-30T12:33:25.409Z,13.10
2022-09-30T12:36:35.587Z,13.10
2022-09-30T12:39:20.630Z,13.30
2022-09-30T12:42:24.961Z,13.20
2022-09-30T12:45:27.055Z,13.20
2022-09-30T12:47:56.889Z,13.20
2022-09-30T12:50:28.463Z,13.20
2022-09-30T12:52:57.161Z,13.40
2022-09-30T12:55:37.855Z,13.30
2022-09-30T12:58:05.350Z,13.20
2022-09-30T13:00:34.459Z,13.20
2022-09-30T13:03:09.584Z,13.30
2022-09-30T13:05:36.119Z,13.40
2022-09-30T13:08:05.656Z,13.60
2022-09-30T13:10:38.096Z,13.50
2022-09-30T13:13:10.509Z,13.50
2022-09-30T13:15:37.042Z,13.50
2022-09-30T13:18:21.959Z,13.40
2022-09-30T13:20:55.786Z,13.40
2022-09-30T13:23:52.321Z,13.30
2022-09-30T13:26:54.010Z,13.30
2022-09-30T13:29:20.565Z,13.20
2022-09-30T13:31:49.959Z,13.20
2022-09-30T13:34:31.133Z,13.30
2022-09-30T13:37:03.055Z,13.50
2022-09-30T13:39:35.453Z,13.70
2022-09-30T13:42:28.687Z,13.80
2022-09-30T13:45:11.999Z,13.90
2022-09-30T13:47:57.437Z,13.90
2022-09-30T13:50:31.233Z,13.80
2022-09-30T13:53:06.447Z,13.80
2022-09-30T13:55:42.241Z,13.70
2022-09-30T13:58:34.298Z,13.60
2022-09-30T14:01:19.459Z,13.60
2022-09-30T14:04:15.356Z,13.60
2022-09-30T14:07:19.440Z,13.50
2022-09-30T14:09:51.770Z,13.50
2022-09-30T14:12:48.648Z,13.50
2022-09-30T14:15:45.618Z,13.50
2022-09-30T14:18:35.892Z,13.60
2022-09-30T14:21:14.558Z,13.60
2022-09-30T14:23:41.591Z,13.70
2022-09-30T14:26:19.990Z,13.70
2022-09-30T14:29:08.527Z,13.70
2022-09-30T14:31:44.404Z,13.70
2022-09-30T14:34:13.547Z,13.60
2022-09-30T14:36:40.967Z,13.60
2022-09-30T14:39:24.092Z,13.60
2022-09-30T14:41:57.996Z,13.50
2022-09-30T14:44:27.977Z,13.30
2022-09-30T14:46:54.735Z,13.40
2022-09-30T14:49:25.560Z,13.40
2022-09-30T14:51:52.178Z,13.40
2022-09-30T14:54:23.005Z,13.30
2022-09-30T14:56:50.592Z,13.20
2022-09-30T14:59:31.943Z,13.20
2022-09-30T15:02:17.557Z,13.20
2022-09-30T15:04:49.440Z,13.10
2022-09-30T15:07:16.283Z,13.10
2022-09-30T15:09:48.145Z,13.10
2022-09-30T15:12:22.500Z,13.20
2022-09-30T15:14:54.611Z,13.20
2022-09-30T15:17:27.271Z,13.20
2022-09-30T15:19:54.395Z,13.10
2022-09-30T15:22:22.886Z,13.10
2022-09-30T15:24:50.922Z,13.10
2022-09-30T15:27:36.380Z,13.10
2022-09-30T15:30:16.861Z,12.90
2022-09-30T15:32:44.312Z,12.90
2022-09-30T15:35:19.918Z,12.90
2022-09-30T15:37:46.726Z,12.90
2022-09-30T15:40:22.935Z,12.90
2022-09-30T15:42:58.470Z,12.90
2022-09-30T15:45:39.620Z,12.80
2022-09-30T15:48:27.773Z,12.90
2022-09-30T15:50:56.958Z,12.80
2022-09-30T15:53:25.959Z,12.90
2022-09-30T15:55:53.358Z,12.90
2022-09-30T15:58:38.411Z,12.80
2022-09-30T16:01:44.404Z,12.80
2022-09-30T16:04:15.959Z,12.70
2022-09-30T16:06:46.726Z,12.70
2022-09-30T16:09:25.308Z,12.70
2022-09-30T16:12:14.055Z,12.80
2022-09-30T16:14:58.338Z,12.70
2022-09-30T16:17:34.475Z,12.70
2022-09-30T16:20:21.004Z,12.70
2022-09-30T16:22:48.930Z,12.70
2022-09-30T16:25:18.433Z,12.70
2022-09-30T16:27:45.070Z,12.60
2022-09-30T16:30:16.877Z,12.60
2022-09-30T16:32:47.458Z,12.60
2022-09-30T16:35:25.469Z,12.60
2022-09-30T16:37:59.457Z,12.60
2022-09-30T16:40:27.604Z,12.60
2022-09-30T16:42:54.363Z,12.60
2022-09-30T16:45:22.084Z,12.60
2022-09-30T16:47:48.948Z,12.50
2022-09-30T16:50:40.068Z,12.50
2022-09-30T16:53:06.741Z,12.50
2022-09-30T16:55:33.356Z,12.50
2022-09-30T16:57:59.979Z,12.50
2022-09-30T17:00:28.301Z,12.50
2022-09-30T17:02:55.007Z,12.40
2022-09-30T17:05:24.303Z,12.40
2022-09-30T17:07:56.438Z,12.40
2022-09-30T17:10:26.157Z,12.40
2022-09-30T17:12:52.749Z,12.40
2022-09-30T17:15:19.925Z,12.40
2022-09-30T17:17:46.608Z,12.30
2022-09-30T17:20:13.537Z,12.30
2022-09-30T17:22:40.490Z,12.30
2022-09-30T17:25:08.343Z,12.30
2022-09-30T17:27:34.943Z,12.30
2022-09-30T17:30:01.540Z,12.20
2022-09-30T17:32:28.103Z,12.20
2022-09-30T17:34:54.656Z,12.20
2022-09-30T17:37:21.259Z,12.20
2022-09-30T17:39:47.819Z,12.20
2022-09-30T17:42:15.639Z,12.10
2022-09-30T17:44:42.230Z,12.20
2022-09-30T17:47:08.798Z,12.10
2022-09-30T17:49:35.885Z,12.10
2022-09-30T17:52:04.054Z,12.10
2022-09-30T17:54:31.605Z,12.10
2022-09-30T17:56:58.531Z,12.10
2022-09-30T17:59:25.743Z,12.10
2022-09-30T18:01:53.122Z,12.10
2022-09-30T18:04:19.797Z,12.10
2022-09-30T18:06:46.377Z,12.00
2022-09-30T18:09:12.935Z,12.00
2022-09-30T18:11:43.362Z,12.00
2022-09-30T18:14:11.719Z,12.10
2022-09-30T18:16:38.593Z,12.10
2022-09-30T18:19:06.501Z,12.10
2022-09-30T18:21:35.226Z,12.10
2022-09-30T18:24:03.129Z,12.00
2022-09-30T18:26:34.992Z,12.00
2022-09-30T18:29:02.265Z,12.00
2022-09-30T18:31:28.902Z,12.00
2022-09-30T18:33:56.007Z,12.00
2022-09-30T18:36:23.742Z,12.00
2022-09-30T18:38:50.636Z,12.00
2022-09-30T18:41:17.253Z,12.00
2022-09-30T18:43:43.931Z,12.00
2022-09-30T18:46:11.324Z,12.00
2022-09-30T18:48:37.964Z,11.90
2022-09-30T18:51:05.308Z,11.90
2022-09-30T18:53:34.540Z,11.90
2022-09-30T18:56:02.012Z,11.90
2022-09-30T18:58:28.690Z,11.90
2022-09-30T19:00:55.294Z,11.90
2022-09-30T19:03:21.923Z,11.80
2022-09-30T19:05:48.498Z,11.80
2022-09-30T19:08:15.067Z,11.80
2022-09-30T19:10:42.080Z,11.80
2022-09-30T19:13:09.364Z,11.80
2022-09-30T19:15:38.410Z,11.80
2022-09-30T19:18:05.678Z,11.70
2022-09-30T19:20:35.693Z,11.80
2022-09-30T19:23:06.390Z,11.70
2022-09-30T19:25:33.006Z,11.70
2022-09-30T19:27:59.644Z,11.70
2022-09-30T19:30:26.589Z,11.70
2022-09-30T19:32:57.270Z,11.70
2022-09-30T19:35:33.955Z,11.70
2022-09-30T19:38:04.230Z,11.60
2022-09-30T19:40:30.848Z,11.60
2022-09-30T19:42:57.797Z,11.60
2022-09-30T19:45:25.760Z,11.60
2022-09-30T19:47:53.075Z,11.60
2022-09-30T19:50:19.837Z,11.60
2022-09-30T19:52:56.377Z,11.60
2022-09-30T19:55:24.255Z,11.60
2022-09-30T19:57:50.859Z,11.60
2022-09-30T20:00:17.552Z,11.50
2022-09-30T20:02:44.272Z,11.50
2022-09-30T20:05:10.907Z,11.50
2022-09-30T20:07:37.560Z,11.50
2022-09-30T20:10:04.586Z,11.50
2022-09-30T20:12:31.188Z,11.50
2022-09-30T20:14:57.942Z,11.40
2022-09-30T20:17:24.539Z,11.40
2022-09-30T20:19:51.161Z,11.40
2022-09-30T20:22:17.809Z,11.40
2022-09-30T20:24:44.381Z,11.30
2022-09-30T20:27:11.023Z,11.30
2022-09-30T20:29:37.736Z,11.30
2022-09-30T20:32:04.498Z,11.30
2022-09-30T20:34:34.450Z,11.20
2022-09-30T20:37:03.501Z,11.20
2022-09-30T20:39:30.209Z,11.20
2022-09-30T20:41:56.946Z,11.20
2022-09-30T20:44:23.679Z,11.20
2022-09-30T20:46:50.252Z,11.20
2022-09-30T20:49:16.847Z,11.10
2022-09-30T20:51:43.427Z,11.10
2022-09-30T20:54:10.130Z,11.10
2022-09-30T20:57:02.848Z,11.10
2022-09-30T20:59:23.532Z,11.10
2022-09-30T21:01:50.123Z,11.10
2022-09-30T21:04:16.754Z,11.10
2022-09-30T21:06:43.369Z,11.10
2022-09-30T21:09:13.236Z,11.00
2022-09-30T21:11:39.831Z,10.90
2022-09-30T21:14:06.564Z,10.90
2022-09-30T21:16:33.249Z,10.80
2022-09-30T21:18:59.872Z,10.70
2022-09-30T21:21:26.548Z,10.70
2022-09-30T21:23:54.057Z,10.60
2022-09-30T21:26:20.775Z,10.60
2022-09-30T21:28:49.353Z,10.50
2022-09-30T21:31:34.386Z,10.50
2022-09-30T21:34:01.194Z,10.50
2022-09-30T21:36:28.461Z,10.40
2022-09-30T21:38:59.268Z,10.30
2022-09-30T21:41:25.861Z,10.30
2022-09-30T21:43:53.083Z,10.30
2022-09-30T21:46:19.671Z,10.30
2022-09-30T21:48:46.330Z,10.20
2022-09-30T21:51:13.010Z,10.20
2022-09-30T21:53:39.598Z,10.20
2022-09-30T21:56:07.190Z,10.10
2022-09-30T21:58:34.234Z,10.00
2022-09-30T22:01:04.227Z,9.90
2022-09-30T22:03:35.704Z,9.90
2022-09-30T22:06:02.691Z,9.80
2022-09-30T22:08:30.280Z,9.70
2022-09-30T22:10:56.985Z,9.70
2022-09-30T22:13:23.757Z,9.70
2022-09-30T22:15:50.367Z,9.60
2022-09-30T22:18:18.899Z,9.60
2022-09-30T22:20:47.294Z,9.60
2022-09-30T22:23:14.288Z,9.60
2022-09-30T22:25:41.324Z,9.60
2022-09-30T22:28:08.171Z,9.60
2022-09-30T22:30:34.889Z,9.60
2022-09-30T22:33:01.815Z,9.60
2022-09-30T22:35:28.392Z,9.50
2022-09-30T22:37:55.018Z,9.50
2022-09-30T22:40:21.589Z,9.50
2022-09-30T22:42:48.205Z,9.50
2022-09-30T22:45:14.861Z,9.50
2022-09-30T22:47:41.440Z,9.50
2022-09-30T22:50:08.713Z,9.50
2022-09-30T22:52:35.283Z,9.40
2022-09-30T22:55:01.925Z,9.40
2022-09-30T22:57:28.502Z,9.40
2022-09-30T22:59:55.074Z,9.40
2022-09-30T23:02:21.698Z,9.50
2022-09-30T23:04:48.308Z,9.50
2022-09-30T23:07:14.929Z,9.40
2022-09-30T23:09:41.512Z,9.40
2022-09-30T23:12:08.121Z,9.40
2022-09-30T23:14:34.680Z,9.40
2022-09-30T23:17:01.257Z,9.40
2022-09-30T23:19:27.850Z,9.40
2022-09-30T23:21:54.415Z,9.40
2022-09-30T23:24:20.990Z,9.50
2022-09-30T23:26:47.629Z,9.40
2022-09-30T23:29:14.869Z,9.40
2022-09-30T23:31:42.052Z,9.40
2022-09-30T23:34:08.738Z,9.40
2022-09-30T23:36:36.807Z,9.40
2022-09-30T23:39:11.992Z,9.30
2022-09-30T23:41:39.040Z,9.30
2022-09-30T23:44:05.807Z,9.30
2022-09-30T23:46:32.497Z,9.30
2022-09-30T23:48:59.145Z,9.20
2022-09-30T23:51:25.760Z,9.20
2022-09-30T23:53:52.395Z,9.20
2022-09-30T23:56:19.692Z,9.10
2022-09-30T23:58:47.206Z,9.10
